sensor_id;sensor_type;location;lat;lon;timestamp;temperature;humidity
6379;DHT22;3222;48.858;10.128;2023-04-25T00:01:46;8.20;99.90
6379;DHT22;3222;48.858;10.128;2023-04-25T00:04:12;8.20;99.90
6379;DHT22;3222;48.858;10.128;2023-04-25T00:06:37;8.30;99.90
6379;DHT22;3222;48.858;10.128;2023-04-25T00:09:04;8.30;99.90
6379;DHT22;3222;48.858;10.128;2023-04-25T00:11:33;8.20;99.90
6379;DHT22;3222;48.858;10.128;2023-04-25T00:13:58;8.20;99.90
6379;DHT22;3222;48.858;10.128;2023-04-25T00:16:27;8.20;99.90
6379;DHT22;3222;48.858;10.128;2023-04-25T00:18:54;8.30;99.90
6379;DHT22;3222;48.858;10.128;2023-04-25T00:21:20;8.20;99.90
6379;DHT22;3222;48.858;10.128;2023-04-25T00:23:46;8.20;99.90
6379;DHT22;3222;48.858;10.128;2023-04-25T00:26:12;8.20;99.90
6379;DHT22;3222;48.858;10.128;2023-04-25T00:28:39;8.40;99.90
6379;DHT22;3222;48.858;10.128;2023-04-25T00:31:05;8.20;99.90
6379;DHT22;3222;48.858;10.128;2023-04-25T00:33:31;8.20;99.90
6379;DHT22;3222;48.858;10.128;2023-04-25T00:35:56;8.20;99.90
6379;DHT22;3222;48.858;10.128;2023-04-25T00:38:22;8.20;99.90
6379;DHT22;3222;48.858;10.128;2023-04-25T00:40:49;8.10;99.90
6379;DHT22;3222;48.858;10.128;2023-04-25T00:43:14;8.10;99.90
6379;DHT22;3222;48.858;10.128;2023-04-25T00:45:40;8.10;99.90
6379;DHT22;3222;48.858;10.128;2023-04-25T00:48:08;8.10;99.90
6379;DHT22;3222;48.858;10.128;2023-04-25T00:50:34;8.00;99.90
6379;DHT22;3222;48.858;10.128;2023-04-25T00:53:00;8.20;99.90
6379;DHT22;3222;48.858;10.128;2023-04-25T00:55:27;8.20;99.90
6379;DHT22;3222;48.858;10.128;2023-04-25T00:57:53;8.20;99.90
6379;DHT22;3222;48.858;10.128;2023-04-25T01:00:19;8.20;99.90
6379;DHT22;3222;48.858;10.128;2023-04-25T01:02:47;8.20;99.90
6379;DHT22;3222;48.858;10.128;2023-04-25T01:05:12;8.20;99.90
6379;DHT22;3222;48.858;10.128;2023-04-25T01:07:39;8.20;99.90
6379;DHT22;3222;48.858;10.128;2023-04-25T01:10:05;8.30;99.90
6379;DHT22;3222;48.858;10.128;2023-04-25T01:12:31;8.40;99.90
6379;DHT22;3222;48.858;10.128;2023-04-25T01:14:57;8.50;99.90
6379;DHT22;3222;48.858;10.128;2023-04-25T01:17:23;8.40;99.90
6379;DHT22;3222;48.858;10.128;2023-04-25T01:19:49;8.50;99.90
6379;DHT22;3222;48.858;10.128;2023-04-25T01:22:16;8.40;99.90
6379;DHT22;3222;48.858;10.128;2023-04-25T01:24:42;8.40;99.90
6379;DHT22;3222;48.858;10.128;2023-04-25T01:27:09;8.40;99.90
6379;DHT22;3222;48.858;10.128;2023-04-25T01:29:35;8.30;99.90
6379;DHT22;3222;48.858;10.128;2023-04-25T01:32:02;8.30;99.90
6379;DHT22;3222;48.858;10.128;2023-04-25T01:34:28;8.30;99.90
6379;DHT22;3222;48.858;10.128;2023-04-25T01:36:59;8.40;99.90
6379;DHT22;3222;48.858;10.128;2023-04-25T01:39:25;8.30;99.90
6379;DHT22;3222;48.858;10.128;2023-04-25T01:41:51;8.30;99.90
6379;DHT22;3222;48.858;10.128;2023-04-25T01:44:17;8.20;99.90
6379;DHT22;3222;48.858;10.128;2023-04-25T01:46:43;8.20;99.90
6379;DHT22;3222;48.858;10.128;2023-04-25T01:49:10;8.20;99.90
6379;DHT22;3222;48.858;10.128;2023-04-25T01:51:36;8.30;99.90
6379;DHT22;3222;48.858;10.128;2023-04-25T01:54:02;8.30;99.90
6379;DHT22;3222;48.858;10.128;2023-04-25T01:56:32;8.20;99.90
6379;DHT22;3222;48.858;10.128;2023-04-25T01:58:59;8.30;99.90
6379;DHT22;3222;48.858;10.128;2023-04-25T02:01:43;8.20;99.90
6379;DHT22;3222;48.858;10.128;2023-04-25T02:04:22;8.20;99.90
6379;DHT22;3222;48.858;10.128;2023-04-25T02:06:47;8.10;99.90
6379;DHT22;3222;48.858;10.128;2023-04-25T02:09:14;8.20;99.90
6379;DHT22;3222;48.858;10.128;2023-04-25T02:11:45;8.10;99.90
6379;DHT22;3222;48.858;10.128;2023-04-25T02:14:33;8.10;99.90
6379;DHT22;3222;48.858;10.128;2023-04-25T02:17:12;8.10;99.90
6379;DHT22;3222;48.858;10.128;2023-04-25T02:19:38;8.00;99.90
6379;DHT22;3222;48.858;10.128;2023-04-25T02:22:06;8.00;99.90
6379;DHT22;3222;48.858;10.128;2023-04-25T02:24:32;8.00;99.90
6379;DHT22;3222;48.858;10.128;2023-04-25T02:26:59;7.90;99.90
6379;DHT22;3222;48.858;10.128;2023-04-25T02:29:25;7.90;99.90
6379;DHT22;3222;48.858;10.128;2023-04-25T02:31:50;7.80;99.90
6379;DHT22;3222;48.858;10.128;2023-04-25T02:34:16;7.90;99.90
6379;DHT22;3222;48.858;10.128;2023-04-25T02:36:42;8.00;99.90
6379;DHT22;3222;48.858;10.128;2023-04-25T02:39:08;8.00;99.90
6379;DHT22;3222;48.858;10.128;2023-04-25T02:41:33;8.10;99.90
6379;DHT22;3222;48.858;10.128;2023-04-25T02:43:59;8.10;99.90
6379;DHT22;3222;48.858;10.128;2023-04-25T02:46:25;8.00;99.90
6379;DHT22;3222;48.858;10.128;2023-04-25T02:48:50;7.90;99.90
6379;DHT22;3222;48.858;10.128;2023-04-25T02:51:16;8.00;99.90
6379;DHT22;3222;48.858;10.128;2023-04-25T02:53:43;8.00;99.90
6379;DHT22;3222;48.858;10.128;2023-04-25T02:56:09;7.90;99.90
6379;DHT22;3222;48.858;10.128;2023-04-25T02:58:35;8.00;99.90
6379;DHT22;3222;48.858;10.128;2023-04-25T03:01:01;8.00;99.90
6379;DHT22;3222;48.858;10.128;2023-04-25T03:03:26;8.10;99.90
6379;DHT22;3222;48.858;10.128;2023-04-25T03:05:52;8.10;99.90
6379;DHT22;3222;48.858;10.128;2023-04-25T03:08:25;8.00;99.90
6379;DHT22;3222;48.858;10.128;2023-04-25T03:10:54;7.90;99.90
6379;DHT22;3222;48.858;10.128;2023-04-25T03:13:21;7.90;99.90
6379;DHT22;3222;48.858;10.128;2023-04-25T03:15:46;7.90;99.90
6379;DHT22;3222;48.858;10.128;2023-04-25T03:18:12;7.90;99.90
6379;DHT22;3222;48.858;10.128;2023-04-25T03:20:38;7.90;99.90
6379;DHT22;3222;48.858;10.128;2023-04-25T03:23:06;8.00;99.90
6379;DHT22;3222;48.858;10.128;2023-04-25T03:25:31;8.00;99.90
6379;DHT22;3222;48.858;10.128;2023-04-25T03:27:57;8.00;99.90
6379;DHT22;3222;48.858;10.128;2023-04-25T03:30:23;8.00;99.90
6379;DHT22;3222;48.858;10.128;2023-04-25T03:32:49;8.00;99.90
6379;DHT22;3222;48.858;10.128;2023-04-25T03:35:16;7.90;99.90
6379;DHT22;3222;48.858;10.128;2023-04-25T03:37:42;7.90;99.90
6379;DHT22;3222;48.858;10.128;2023-04-25T03:40:12;8.00;99.90
6379;DHT22;3222;48.858;10.128;2023-04-25T03:43:01;8.00;99.90
6379;DHT22;3222;48.858;10.128;2023-04-25T03:45:26;8.00;99.90
6379;DHT22;3222;48.858;10.128;2023-04-25T03:47:52;8.00;99.90
6379;DHT22;3222;48.858;10.128;2023-04-25T03:50:18;8.00;99.90
6379;DHT22;3222;48.858;10.128;2023-04-25T03:52:43;7.90;99.90
6379;DHT22;3222;48.858;10.128;2023-04-25T03:55:09;7.90;99.90
6379;DHT22;3222;48.858;10.128;2023-04-25T03:57:36;8.00;99.90
6379;DHT22;3222;48.858;10.128;2023-04-25T04:00:02;8.00;99.90
6379;DHT22;3222;48.858;10.128;2023-04-25T04:02:38;8.00;99.90
6379;DHT22;3222;48.858;10.128;2023-04-25T04:05:05;8.00;99.90
6379;DHT22;3222;48.858;10.128;2023-04-25T04:07:34;8.00;99.90
6379;DHT22;3222;48.858;10.128;2023-04-25T04:10:06;7.90;99.90
6379;DHT22;3222;48.858;10.128;2023-04-25T04:12:36;7.90;99.90
6379;DHT22;3222;48.858;10.128;2023-04-25T04:15:03;7.90;99.90
6379;DHT22;3222;48.858;10.128;2023-04-25T04:17:29;8.00;99.90
6379;DHT22;3222;48.858;10.128;2023-04-25T04:19:56;7.90;99.90
6379;DHT22;3222;48.858;10.128;2023-04-25T04:22:22;7.80;99.90
6379;DHT22;3222;48.858;10.128;2023-04-25T04:24:50;7.70;99.90
6379;DHT22;3222;48.858;10.128;2023-04-25T04:27:21;7.80;99.90
6379;DHT22;3222;48.858;10.128;2023-04-25T04:29:52;7.90;99.90
6379;DHT22;3222;48.858;10.128;2023-04-25T04:32:29;7.90;99.90
6379;DHT22;3222;48.858;10.128;2023-04-25T04:34:56;7.90;99.90
6379;DHT22;3222;48.858;10.128;2023-04-25T04:37:23;7.90;99.90
6379;DHT22;3222;48.858;10.128;2023-04-25T04:39:50;7.90;99.90
6379;DHT22;3222;48.858;10.128;2023-04-25T04:42:34;7.90;99.90
6379;DHT22;3222;48.858;10.128;2023-04-25T04:45:21;7.80;99.90
6379;DHT22;3222;48.858;10.128;2023-04-25T04:48:08;7.80;99.90
6379;DHT22;3222;48.858;10.128;2023-04-25T04:50:56;7.80;99.90
6379;DHT22;3222;48.858;10.128;2023-04-25T04:53:39;7.80;99.90
6379;DHT22;3222;48.858;10.128;2023-04-25T04:56:17;7.90;99.90
6379;DHT22;3222;48.858;10.128;2023-04-25T04:59:15;8.00;99.90
6379;DHT22;3222;48.858;10.128;2023-04-25T05:02:02;7.90;99.90
6379;DHT22;3222;48.858;10.128;2023-04-25T05:04:43;7.80;99.90
6379;DHT22;3222;48.858;10.128;2023-04-25T05:07:23;7.80;99.90
6379;DHT22;3222;48.858;10.128;2023-04-25T05:10:06;7.80;99.90
6379;DHT22;3222;48.858;10.128;2023-04-25T05:13:01;7.80;99.90
6379;DHT22;3222;48.858;10.128;2023-04-25T05:15:51;7.80;99.90
6379;DHT22;3222;48.858;10.128;2023-04-25T05:18:46;7.80;99.90
6379;DHT22;3222;48.858;10.128;2023-04-25T05:21:26;7.80;99.90
6379;DHT22;3222;48.858;10.128;2023-04-25T05:24:06;7.80;99.90
6379;DHT22;3222;48.858;10.128;2023-04-25T05:26:50;7.80;99.90
6379;DHT22;3222;48.858;10.128;2023-04-25T05:29:41;7.70;99.90
6379;DHT22;3222;48.858;10.128;2023-04-25T05:32:22;7.70;99.90
6379;DHT22;3222;48.858;10.128;2023-04-25T05:34:51;7.80;99.90
6379;DHT22;3222;48.858;10.128;2023-04-25T05:37:29;7.80;99.90
6379;DHT22;3222;48.858;10.128;2023-04-25T05:40:07;7.90;99.90
6379;DHT22;3222;48.858;10.128;2023-04-25T05:42:52;7.90;99.90
6379;DHT22;3222;48.858;10.128;2023-04-25T05:45:36;7.90;99.90
6379;DHT22;3222;48.858;10.128;2023-04-25T05:48:20;8.00;99.90
6379;DHT22;3222;48.858;10.128;2023-04-25T05:50:57;8.10;99.90
6379;DHT22;3222;48.858;10.128;2023-04-25T05:53:42;8.00;99.90
6379;DHT22;3222;48.858;10.128;2023-04-25T05:56:08;8.00;99.90
6379;DHT22;3222;48.858;10.128;2023-04-25T05:58:33;7.80;99.90
6379;DHT22;3222;48.858;10.128;2023-04-25T06:00:59;7.90;99.90
6379;DHT22;3222;48.858;10.128;2023-04-25T06:03:25;7.80;99.90
6379;DHT22;3222;48.858;10.128;2023-04-25T06:05:51;7.80;99.90
6379;DHT22;3222;48.858;10.128;2023-04-25T06:08:18;7.80;99.90
6379;DHT22;3222;48.858;10.128;2023-04-25T06:10:44;7.90;99.90
6379;DHT22;3222;48.858;10.128;2023-04-25T06:13:10;7.90;99.90
6379;DHT22;3222;48.858;10.128;2023-04-25T06:15:36;7.90;99.90
6379;DHT22;3222;48.858;10.128;2023-04-25T06:18:02;8.00;99.90
6379;DHT22;3222;48.858;10.128;2023-04-25T06:20:27;7.90;99.90
6379;DHT22;3222;48.858;10.128;2023-04-25T06:22:56;8.00;99.90
6379;DHT22;3222;48.858;10.128;2023-04-25T06:25:57;7.90;99.90
6379;DHT22;3222;48.858;10.128;2023-04-25T06:28:24;8.00;99.90
6379;DHT22;3222;48.858;10.128;2023-04-25T06:30:51;8.00;99.90
6379;DHT22;3222;48.858;10.128;2023-04-25T06:33:18;8.00;99.90
6379;DHT22;3222;48.858;10.128;2023-04-25T06:35:45;8.10;99.90
6379;DHT22;3222;48.858;10.128;2023-04-25T06:38:13;8.10;99.90
6379;DHT22;3222;48.858;10.128;2023-04-25T06:40:43;8.10;99.90
6379;DHT22;3222;48.858;10.128;2023-04-25T06:43:10;8.00;99.90
6379;DHT22;3222;48.858;10.128;2023-04-25T06:45:48;7.80;99.90
6379;DHT22;3222;48.858;10.128;2023-04-25T06:48:14;7.90;99.90
6379;DHT22;3222;48.858;10.128;2023-04-25T06:50:41;8.00;99.90
6379;DHT22;3222;48.858;10.128;2023-04-25T06:53:07;8.00;99.90
6379;DHT22;3222;48.858;10.128;2023-04-25T06:55:35;8.00;99.90
6379;DHT22;3222;48.858;10.128;2023-04-25T06:58:12;8.00;99.90
6379;DHT22;3222;48.858;10.128;2023-04-25T07:00:56;7.90;99.90
6379;DHT22;3222;48.858;10.128;2023-04-25T07:03:24;8.00;99.90
6379;DHT22;3222;48.858;10.128;2023-04-25T07:05:54;8.00;99.90
6379;DHT22;3222;48.858;10.128;2023-04-25T07:08:21;8.10;99.90
6379;DHT22;3222;48.858;10.128;2023-04-25T07:10:47;8.10;99.90
6379;DHT22;3222;48.858;10.128;2023-04-25T07:13:12;8.00;99.90
6379;DHT22;3222;48.858;10.128;2023-04-25T07:15:38;8.00;99.90
6379;DHT22;3222;48.858;10.128;2023-04-25T07:18:05;8.10;99.90
6379;DHT22;3222;48.858;10.128;2023-04-25T07:20:31;8.10;99.90
6379;DHT22;3222;48.858;10.128;2023-04-25T07:22:58;8.10;99.90
6379;DHT22;3222;48.858;10.128;2023-04-25T07:25:23;8.10;99.90
6379;DHT22;3222;48.858;10.128;2023-04-25T07:27:50;8.10;99.90
6379;DHT22;3222;48.858;10.128;2023-04-25T07:30:18;8.20;99.90
6379;DHT22;3222;48.858;10.128;2023-04-25T07:32:43;8.10;99.90
6379;DHT22;3222;48.858;10.128;2023-04-25T07:35:09;8.20;99.90
6379;DHT22;3222;48.858;10.128;2023-04-25T07:37:35;8.20;99.90
6379;DHT22;3222;48.858;10.128;2023-04-25T07:40:10;8.20;99.90
6379;DHT22;3222;48.858;10.128;2023-04-25T07:42:41;8.10;99.90
6379;DHT22;3222;48.858;10.128;2023-04-25T07:45:07;8.10;99.90
6379;DHT22;3222;48.858;10.128;2023-04-25T07:47:35;8.10;99.90
6379;DHT22;3222;48.858;10.128;2023-04-25T07:50:02;8.10;99.90
6379;DHT22;3222;48.858;10.128;2023-04-25T07:52:30;8.10;99.90
6379;DHT22;3222;48.858;10.128;2023-04-25T07:55:03;8.10;99.90
6379;DHT22;3222;48.858;10.128;2023-04-25T07:57:40;8.20;99.90
6379;DHT22;3222;48.858;10.128;2023-04-25T08:00:06;8.00;99.90
6379;DHT22;3222;48.858;10.128;2023-04-25T08:02:39;8.10;99.90
6379;DHT22;3222;48.858;10.128;2023-04-25T08:05:07;8.10;99.90
6379;DHT22;3222;48.858;10.128;2023-04-25T08:07:38;8.10;99.90
6379;DHT22;3222;48.858;10.128;2023-04-25T08:10:08;8.00;99.90
6379;DHT22;3222;48.858;10.128;2023-04-25T08:12:34;7.90;99.90
6379;DHT22;3222;48.858;10.128;2023-04-25T08:15:00;8.00;99.90
6379;DHT22;3222;48.858;10.128;2023-04-25T08:17:30;8.00;99.90
6379;DHT22;3222;48.858;10.128;2023-04-25T08:19:56;8.10;99.90
6379;DHT22;3222;48.858;10.128;2023-04-25T08:22:26;8.10;99.90
6379;DHT22;3222;48.858;10.128;2023-04-25T08:25:04;8.00;99.90
6379;DHT22;3222;48.858;10.128;2023-04-25T08:27:30;8.10;99.90
6379;DHT22;3222;48.858;10.128;2023-04-25T08:29:56;8.00;99.90
6379;DHT22;3222;48.858;10.128;2023-04-25T08:32:21;8.10;99.90
6379;DHT22;3222;48.858;10.128;2023-04-25T08:35:05;8.00;99.90
6379;DHT22;3222;48.858;10.128;2023-04-25T08:37:31;8.00;99.90
6379;DHT22;3222;48.858;10.128;2023-04-25T08:40:01;8.10;99.90
6379;DHT22;3222;48.858;10.128;2023-04-25T08:42:44;8.10;99.90
6379;DHT22;3222;48.858;10.128;2023-04-25T08:45:12;8.10;99.90
6379;DHT22;3222;48.858;10.128;2023-04-25T08:47:41;8.10;99.90
6379;DHT22;3222;48.858;10.128;2023-04-25T08:50:08;8.10;99.90
6379;DHT22;3222;48.858;10.128;2023-04-25T08:52:43;8.10;99.90
6379;DHT22;3222;48.858;10.128;2023-04-25T08:55:10;8.00;99.90
6379;DHT22;3222;48.858;10.128;2023-04-25T08:57:38;8.10;99.90
6379;DHT22;3222;48.858;10.128;2023-04-25T09:00:06;8.10;99.90
6379;DHT22;3222;48.858;10.128;2023-04-25T09:02:36;8.00;99.90
6379;DHT22;3222;48.858;10.128;2023-04-25T09:05:02;8.00;99.90
6379;DHT22;3222;48.858;10.128;2023-04-25T09:07:30;8.00;99.90
6379;DHT22;3222;48.858;10.128;2023-04-25T09:09:55;7.90;99.90
6379;DHT22;3222;48.858;10.128;2023-04-25T09:12:22;8.00;99.90
6379;DHT22;3222;48.858;10.128;2023-04-25T09:15:07;8.00;99.90
6379;DHT22;3222;48.858;10.128;2023-04-25T09:18:01;8.00;99.90
6379;DHT22;3222;48.858;10.128;2023-04-25T09:20:41;8.00;99.90
6379;DHT22;3222;48.858;10.128;2023-04-25T09:23:08;8.00;99.90
6379;DHT22;3222;48.858;10.128;2023-04-25T09:25:37;8.00;99.90
6379;DHT22;3222;48.858;10.128;2023-04-25T09:28:06;8.00;99.90
6379;DHT22;3222;48.858;10.128;2023-04-25T09:30:34;8.00;99.90
6379;DHT22;3222;48.858;10.128;2023-04-25T09:33:20;7.90;99.90
6379;DHT22;3222;48.858;10.128;2023-04-25T09:35:51;7.90;99.90
6379;DHT22;3222;48.858;10.128;2023-04-25T09:38:39;7.90;99.90
6379;DHT22;3222;48.858;10.128;2023-04-25T09:41:23;7.90;99.90
6379;DHT22;3222;48.858;10.128;2023-04-25T09:43:49;8.00;99.90
6379;DHT22;3222;48.858;10.128;2023-04-25T09:46:16;8.10;99.90
6379;DHT22;3222;48.858;10.128;2023-04-25T09:48:50;8.00;99.90
6379;DHT22;3222;48.858;10.128;2023-04-25T09:51:25;8.10;99.90
6379;DHT22;3222;48.858;10.128;2023-04-25T09:53:52;8.10;99.90
6379;DHT22;3222;48.858;10.128;2023-04-25T09:56:26;8.10;99.90
6379;DHT22;3222;48.858;10.128;2023-04-25T09:58:53;8.10;99.90
6379;DHT22;3222;48.858;10.128;2023-04-25T10:01:21;8.10;99.90
6379;DHT22;3222;48.858;10.128;2023-04-25T10:04:11;8.10;99.90
6379;DHT22;3222;48.858;10.128;2023-04-25T10:06:45;8.10;99.90
6379;DHT22;3222;48.858;10.128;2023-04-25T10:09:16;8.10;99.90
6379;DHT22;3222;48.858;10.128;2023-04-25T10:11:44;8.10;99.90
6379;DHT22;3222;48.858;10.128;2023-04-25T10:14:10;8.10;99.90
6379;DHT22;3222;48.858;10.128;2023-04-25T10:16:38;8.20;99.90
6379;DHT22;3222;48.858;10.128;2023-04-25T10:19:05;8.10;99.90
6379;DHT22;3222;48.858;10.128;2023-04-25T10:21:32;8.20;99.90
6379;DHT22;3222;48.858;10.128;2023-04-25T10:23:59;8.20;99.90
6379;DHT22;3222;48.858;10.128;2023-04-25T10:26:25;8.40;99.90
6379;DHT22;3222;48.858;10.128;2023-04-25T10:28:58;8.50;99.90
6379;DHT22;3222;48.858;10.128;2023-04-25T10:31:25;8.50;99.90
6379;DHT22;3222;48.858;10.128;2023-04-25T10:33:51;8.40;99.90
6379;DHT22;3222;48.858;10.128;2023-04-25T10:36:24;8.30;99.90
6379;DHT22;3222;48.858;10.128;2023-04-25T10:38:53;8.30;99.90
6379;DHT22;3222;48.858;10.128;2023-04-25T10:41:20;8.30;99.90
6379;DHT22;3222;48.858;10.128;2023-04-25T10:43:48;8.20;99.90
6379;DHT22;3222;48.858;10.128;2023-04-25T10:46:17;8.30;99.90
6379;DHT22;3222;48.858;10.128;2023-04-25T10:48:47;8.30;99.90
6379;DHT22;3222;48.858;10.128;2023-04-25T10:51:28;8.30;99.90
6379;DHT22;3222;48.858;10.128;2023-04-25T10:54:05;8.30;99.90
6379;DHT22;3222;48.858;10.128;2023-04-25T10:56:32;8.30;99.90
6379;DHT22;3222;48.858;10.128;2023-04-25T10:59:18;8.20;99.90
6379;DHT22;3222;48.858;10.128;2023-04-25T11:01:51;8.30;99.90
6379;DHT22;3222;48.858;10.128;2023-04-25T11:04:25;8.30;99.90
6379;DHT22;3222;48.858;10.128;2023-04-25T11:09:29;8.40;99.90
6379;DHT22;3222;48.858;10.128;2023-04-25T11:11:59;8.50;99.90
6379;DHT22;3222;48.858;10.128;2023-04-25T11:14:26;8.50;99.90
6379;DHT22;3222;48.858;10.128;2023-04-25T11:16:56;8.60;99.90
6379;DHT22;3222;48.858;10.128;2023-04-25T11:19:24;8.60;99.90
6379;DHT22;3222;48.858;10.128;2023-04-25T11:21:50;8.60;99.90
6379;DHT22;3222;48.858;10.128;2023-04-25T11:24:20;8.70;99.90
6379;DHT22;3222;48.858;10.128;2023-04-25T11:26:50;8.70;99.90
6379;DHT22;3222;48.858;10.128;2023-04-25T11:29:16;8.70;99.90
6379;DHT22;3222;48.858;10.128;2023-04-25T11:31:44;8.70;99.90
6379;DHT22;3222;48.858;10.128;2023-04-25T11:34:17;8.70;99.90
6379;DHT22;3222;48.858;10.128;2023-04-25T11:36:45;8.70;99.90
6379;DHT22;3222;48.858;10.128;2023-04-25T11:39:11;8.80;99.90
6379;DHT22;3222;48.858;10.128;2023-04-25T11:41:41;8.80;99.90
6379;DHT22;3222;48.858;10.128;2023-04-25T11:44:07;8.90;99.90
6379;DHT22;3222;48.858;10.128;2023-04-25T11:46:36;8.80;99.90
6379;DHT22;3222;48.858;10.128;2023-04-25T11:49:02;9.00;99.90
6379;DHT22;3222;48.858;10.128;2023-04-25T11:51:28;9.00;99.90
6379;DHT22;3222;48.858;10.128;2023-04-25T11:53:53;9.10;99.90
6379;DHT22;3222;48.858;10.128;2023-04-25T11:56:20;9.10;99.90
6379;DHT22;3222;48.858;10.128;2023-04-25T11:58:59;9.10;99.90
6379;DHT22;3222;48.858;10.128;2023-04-25T12:01:34;9.10;99.90
6379;DHT22;3222;48.858;10.128;2023-04-25T12:04:21;9.20;99.90
6379;DHT22;3222;48.858;10.128;2023-04-25T12:06:48;9.20;99.90
6379;DHT22;3222;48.858;10.128;2023-04-25T12:09:18;9.20;99.90
6379;DHT22;3222;48.858;10.128;2023-04-25T12:11:45;9.20;99.90
6379;DHT22;3222;48.858;10.128;2023-04-25T12:14:12;9.10;99.90
6379;DHT22;3222;48.858;10.128;2023-04-25T12:16:46;9.20;99.90
6379;DHT22;3222;48.858;10.128;2023-04-25T12:19:16;9.10;99.90
6379;DHT22;3222;48.858;10.128;2023-04-25T12:21:45;8.90;99.90
6379;DHT22;3222;48.858;10.128;2023-04-25T12:24:15;8.90;99.90
6379;DHT22;3222;48.858;10.128;2023-04-25T12:29:18;8.90;99.90
6379;DHT22;3222;48.858;10.128;2023-04-25T12:31:44;8.80;99.90
6379;DHT22;3222;48.858;10.128;2023-04-25T12:34:10;8.80;99.90
6379;DHT22;3222;48.858;10.128;2023-04-25T12:36:36;8.60;99.90
6379;DHT22;3222;48.858;10.128;2023-04-25T12:39:02;8.60;99.90
6379;DHT22;3222;48.858;10.128;2023-04-25T12:41:30;8.60;99.90
6379;DHT22;3222;48.858;10.128;2023-04-25T12:43:55;8.60;99.90
6379;DHT22;3222;48.858;10.128;2023-04-25T12:46:21;8.80;99.90
6379;DHT22;3222;48.858;10.128;2023-04-25T12:48:48;8.70;99.90
6379;DHT22;3222;48.858;10.128;2023-04-25T12:51:14;8.70;99.90
6379;DHT22;3222;48.858;10.128;2023-04-25T12:53:40;8.70;99.90
6379;DHT22;3222;48.858;10.128;2023-04-25T12:56:07;8.70;99.90
6379;DHT22;3222;48.858;10.128;2023-04-25T12:58:33;8.60;99.90
6379;DHT22;3222;48.858;10.128;2023-04-25T13:00:59;8.80;99.90
6379;DHT22;3222;48.858;10.128;2023-04-25T13:03:25;8.70;99.90
6379;DHT22;3222;48.858;10.128;2023-04-25T13:05:51;8.80;99.90
6379;DHT22;3222;48.858;10.128;2023-04-25T13:08:21;8.60;99.90
6379;DHT22;3222;48.858;10.128;2023-04-25T13:10:49;8.60;99.90
6379;DHT22;3222;48.858;10.128;2023-04-25T13:13:15;8.70;99.90
6379;DHT22;3222;48.858;10.128;2023-04-25T13:15:42;8.60;99.90
6379;DHT22;3222;48.858;10.128;2023-04-25T13:18:08;8.50;99.90
6379;DHT22;3222;48.858;10.128;2023-04-25T13:20:34;8.40;99.90
6379;DHT22;3222;48.858;10.128;2023-04-25T13:23:00;8.50;99.90
6379;DHT22;3222;48.858;10.128;2023-04-25T13:25:25;8.60;99.90
6379;DHT22;3222;48.858;10.128;2023-04-25T13:27:51;8.80;99.90
6379;DHT22;3222;48.858;10.128;2023-04-25T13:30:17;8.90;99.90
6379;DHT22;3222;48.858;10.128;2023-04-25T13:32:42;8.90;99.90
6379;DHT22;3222;48.858;10.128;2023-04-25T13:35:11;8.90;99.90
6379;DHT22;3222;48.858;10.128;2023-04-25T13:37:38;8.70;99.90
6379;DHT22;3222;48.858;10.128;2023-04-25T13:40:06;8.90;99.90
6379;DHT22;3222;48.858;10.128;2023-04-25T13:42:34;8.90;99.90
6379;DHT22;3222;48.858;10.128;2023-04-25T13:45:00;8.80;99.90
6379;DHT22;3222;48.858;10.128;2023-04-25T13:47:27;8.80;99.90
6379;DHT22;3222;48.858;10.128;2023-04-25T13:49:52;8.80;99.90
6379;DHT22;3222;48.858;10.128;2023-04-25T13:52:18;8.80;99.90
6379;DHT22;3222;48.858;10.128;2023-04-25T13:54:44;8.80;99.90
6379;DHT22;3222;48.858;10.128;2023-04-25T13:57:10;8.80;99.90
6379;DHT22;3222;48.858;10.128;2023-04-25T13:59:37;8.80;99.90
6379;DHT22;3222;48.858;10.128;2023-04-25T14:02:03;8.70;99.90
6379;DHT22;3222;48.858;10.128;2023-04-25T14:04:28;8.80;99.90
6379;DHT22;3222;48.858;10.128;2023-04-25T14:06:55;8.80;99.90
6379;DHT22;3222;48.858;10.128;2023-04-25T14:09:21;8.80;99.90
6379;DHT22;3222;48.858;10.128;2023-04-25T14:11:54;8.80;99.90
6379;DHT22;3222;48.858;10.128;2023-04-25T14:14:21;8.80;99.90
6379;DHT22;3222;48.858;10.128;2023-04-25T14:16:48;8.80;99.90
6379;DHT22;3222;48.858;10.128;2023-04-25T14:19:17;8.80;99.90
6379;DHT22;3222;48.858;10.128;2023-04-25T14:21:43;8.70;99.90
6379;DHT22;3222;48.858;10.128;2023-04-25T14:24:09;8.80;99.90
6379;DHT22;3222;48.858;10.128;2023-04-25T14:26:36;8.80;99.90
6379;DHT22;3222;48.858;10.128;2023-04-25T14:29:06;8.70;99.90
6379;DHT22;3222;48.858;10.128;2023-04-25T14:31:32;8.60;99.90
6379;DHT22;3222;48.858;10.128;2023-04-25T14:33:58;8.50;99.90
6379;DHT22;3222;48.858;10.128;2023-04-25T14:36:24;8.60;99.90
6379;DHT22;3222;48.858;10.128;2023-04-25T14:38:49;8.50;99.90
6379;DHT22;3222;48.858;10.128;2023-04-25T14:41:15;8.40;99.90
6379;DHT22;3222;48.858;10.128;2023-04-25T14:43:41;8.30;99.90
6379;DHT22;3222;48.858;10.128;2023-04-25T14:46:06;8.40;99.90
6379;DHT22;3222;48.858;10.128;2023-04-25T14:48:33;8.40;99.90
6379;DHT22;3222;48.858;10.128;2023-04-25T14:50:59;8.60;99.90
6379;DHT22;3222;48.858;10.128;2023-04-25T14:53:26;8.60;99.90
6379;DHT22;3222;48.858;10.128;2023-04-25T14:55:52;8.60;99.90
6379;DHT22;3222;48.858;10.128;2023-04-25T14:58:19;8.60;99.90
6379;DHT22;3222;48.858;10.128;2023-04-25T15:00:46;8.50;99.90
6379;DHT22;3222;48.858;10.128;2023-04-25T15:03:12;8.50;99.90
6379;DHT22;3222;48.858;10.128;2023-04-25T15:05:39;8.50;99.90
6379;DHT22;3222;48.858;10.128;2023-04-25T15:08:05;8.50;99.90
6379;DHT22;3222;48.858;10.128;2023-04-25T15:10:31;8.50;99.90
6379;DHT22;3222;48.858;10.128;2023-04-25T15:12:57;8.60;99.90
6379;DHT22;3222;48.858;10.128;2023-04-25T15:15:23;8.60;99.90
6379;DHT22;3222;48.858;10.128;2023-04-25T15:17:49;8.50;99.90
6379;DHT22;3222;48.858;10.128;2023-04-25T15:20:15;8.50;99.90
6379;DHT22;3222;48.858;10.128;2023-04-25T15:22:43;8.50;99.90
6379;DHT22;3222;48.858;10.128;2023-04-25T15:25:10;8.50;99.90
6379;DHT22;3222;48.858;10.128;2023-04-25T15:27:39;8.50;99.90
6379;DHT22;3222;48.858;10.128;2023-04-25T15:30:11;8.40;99.90
6379;DHT22;3222;48.858;10.128;2023-04-25T15:32:39;8.30;99.90
6379;DHT22;3222;48.858;10.128;2023-04-25T15:35:06;8.30;99.90
6379;DHT22;3222;48.858;10.128;2023-04-25T15:37:35;8.20;99.90
6379;DHT22;3222;48.858;10.128;2023-04-25T15:40:15;8.10;99.90
6379;DHT22;3222;48.858;10.128;2023-04-25T15:42:51;8.20;99.90
6379;DHT22;3222;48.858;10.128;2023-04-25T15:45:22;8.20;99.90
6379;DHT22;3222;48.858;10.128;2023-04-25T15:47:50;8.30;99.90
6379;DHT22;3222;48.858;10.128;2023-04-25T15:50:18;8.30;99.90
6379;DHT22;3222;48.858;10.128;2023-04-25T15:52:44;8.20;99.90
6379;DHT22;3222;48.858;10.128;2023-04-25T15:55:10;8.20;99.90
6379;DHT22;3222;48.858;10.128;2023-04-25T15:57:36;8.20;99.90
6379;DHT22;3222;48.858;10.128;2023-04-25T16:00:03;8.20;99.90
6379;DHT22;3222;48.858;10.128;2023-04-25T16:02:38;8.20;99.90
6379;DHT22;3222;48.858;10.128;2023-04-25T16:05:05;8.20;99.90
6379;DHT22;3222;48.858;10.128;2023-04-25T16:07:31;8.10;99.90
6379;DHT22;3222;48.858;10.128;2023-04-25T16:09:57;8.10;99.90
6379;DHT22;3222;48.858;10.128;2023-04-25T16:12:23;8.10;99.90
6379;DHT22;3222;48.858;10.128;2023-04-25T16:14:49;8.20;99.90
6379;DHT22;3222;48.858;10.128;2023-04-25T16:17:15;8.20;99.90
6379;DHT22;3222;48.858;10.128;2023-04-25T16:19:41;8.50;99.90
6379;DHT22;3222;48.858;10.128;2023-04-25T16:22:06;8.50;99.90